Time;durP1;ratioP1;P1;durP2;ratioP2;P2;SDS_P1;SDS_P2;PMS_P1;PMS_P2;Temp;Humidity;BMP_temperature;BMP_pressure;BME280_temperature;BME280_humidity;BME280_pressure;Samples;Min_cycle;Max_cycle;Signal;HPM_P1;HPM_P2
2021/04/13 00:01:07;;;;;;;9.25;2.33;;;;;;;1.77;90.38;103157.56;4978039;28;20038;-72
2021/04/13 00:03:33;;;;;;;14.35;2.60;;;;;;;1.78;90.53;103159.28;4976357;28;20081;-72
2021/04/13 00:05:58;;;;;;;8.30;2.10;;;;;;;1.50;90.49;103115.22;4978462;28;20034;-72
2021/04/13 00:08:25;;;;;;;12.90;2.40;;;;;;;1.72;89.98;103162.09;4982768;28;20038;-71
2021/04/13 00:10:57;;;;;;;11.18;2.55;;;;;;;1.68;90.77;103159.53;4981821;28;20041;-72
2021/04/13 00:13:24;;;;;;;13.13;2.97;;;;;;;1.65;90.68;103156.97;4983105;28;20152;-72
2021/04/13 00:15:56;;;;;;;10.35;2.67;;;;;;;1.64;90.05;103157.03;4983951;28;20049;-71
2021/04/13 00:18:30;;;;;;;16.25;2.63;;;;;;;1.61;90.45;103157.97;4986196;28;20050;-71
2021/04/13 00:21:04;;;;;;;15.15;2.83;;;;;;;1.38;90.16;103119.91;4983206;28;20072;-72
2021/04/13 00:23:31;;;;;;;8.93;2.50;;;;;;;1.60;90.47;103145.72;4981532;28;20033;-71
2021/04/13 00:26:00;;;;;;;11.98;2.90;;;;;;;1.59;90.61;103145.72;4984097;28;20045;-72
2021/04/13 00:28:29;;;;;;;8.90;2.30;;;;;;;1.64;90.57;103154.38;4985483;28;20181;-72
2021/04/13 00:31:01;;;;;;;7.75;2.45;;;;;;;1.66;90.35;103155.22;4989574;28;20109;-72
2021/04/13 00:33:30;;;;;;;10.20;3.00;;;;;;;1.66;90.06;103156.06;4979105;28;20633;-72
2021/04/13 00:36:11;;;;;;;8.75;1.90;;;;;;;1.64;89.88;103152.59;4982052;28;20030;-73
2021/04/13 00:38:41;;;;;;;10.10;2.00;;;;;;;1.65;89.84;103158.75;4985044;28;20054;-71
2021/04/13 00:41:41;;;;;;;7.68;2.10;;;;;;;1.59;89.73;103151.88;4984115;28;20089;-71
2021/04/13 00:44:10;;;;;;;12.88;2.08;;;;;;;1.50;90.01;103150.31;4977302;28;20045;-72
2021/04/13 00:46:35;;;;;;;;;;;;;;;1.46;89.91;103158.34;4985612;28;20105;-71
2021/04/13 00:49:01;;;;;;;16.10;2.63;;;;;;;1.36;90.75;103147.16;4983698;28;20317;-72
2021/04/13 00:51:32;;;;;;;12.23;2.45;;;;;;;1.39;90.45;103157.63;4985492;28;20026;-72
2021/04/13 00:54:05;;;;;;;11.20;2.85;;;;;;;1.09;90.13;103107.44;4982830;28;20026;-72
2021/04/13 00:56:33;;;;;;;12.85;2.33;;;;;;;1.32;90.38;103154.25;4980979;28;20026;-72
2021/04/13 00:59:10;;;;;;;14.98;2.90;;;;;;;1.27;90.05;103156.13;4981872;28;20522;-71
2021/04/13 01:01:55;;;;;;;8.63;2.20;;;;;;;1.36;90.17;103169.06;4981025;28;20572;-72
2021/04/13 01:04:39;;;;;;;12.30;2.33;;;;;;;1.38;89.95;103162.00;4983453;28;20101;-71
2021/04/13 01:07:11;;;;;;;9.55;2.65;;;;;;;1.40;89.77;103155.84;4984239;28;20125;-72
2021/04/13 01:09:51;;;;;;;16.63;2.80;;;;;;;1.43;89.46;103156.63;4979546;28;20038;-71
2021/04/13 01:12:26;;;;;;;8.23;1.98;;;;;;;1.43;90.14;103150.50;4986419;28;20269;-72
2021/04/13 01:14:53;;;;;;;10.48;2.30;;;;;;;1.43;89.56;103155.78;4985395;28;20034;-72
2021/04/13 01:17:22;;;;;;;8.55;2.28;;;;;;;1.24;90.17;103127.25;4981114;28;20045;-72
2021/04/13 01:20:10;;;;;;;17.13;3.22;;;;;;;1.16;89.67;103118.69;4987631;28;20050;-72
2021/04/13 01:25:16;;;;;;;12.68;2.25;;;;;;;1.36;90.22;103153.28;4987154;28;20061;-72
2021/04/13 01:27:52;;;;;;;14.57;2.83;;;;;;;1.38;90.15;103153.25;4986375;28;20027;-72
2021/04/13 01:30:19;;;;;;;13.50;2.30;;;;;;;1.33;88.79;103161.25;4987561;28;20302;-72
2021/04/13 01:32:45;;;;;;;10.50;2.38;;;;;;;1.28;89.26;103163.13;4988449;28;20417;-72
2021/04/13 01:35:14;;;;;;;12.38;2.40;;;;;;;1.28;90.00;103167.53;4982001;28;21842;-72
2021/04/13 01:38:17;;;;;;;9.48;2.13;;;;;;;1.27;90.27;103169.28;4985034;28;20018;-72
2021/04/13 01:43:18;;;;;;;9.63;2.33;;;;;;;1.34;89.79;103164.75;4974946;28;20530;-71
2021/04/13 01:45:48;;;;;;;12.80;2.60;;;;;;;1.35;89.83;103171.75;4983892;28;20122;-72
2021/04/13 01:48:15;;;;;;;7.47;2.20;;;;;;;1.37;90.16;103167.31;4982845;28;20511;-72
2021/04/13 01:50:43;;;;;;;11.02;2.58;;;;;;;1.38;89.27;103164.63;4985618;28;20028;-72
2021/04/13 01:53:16;;;;;;;10.02;2.60;;;;;;;1.36;89.25;103169.06;4982239;28;20113;-71
2021/04/13 01:56:00;;;;;;;10.50;2.10;;;;;;;1.32;89.61;103172.69;4983669;28;20034;-72
2021/04/13 01:58:44;;;;;;;13.82;2.42;;;;;;;1.05;89.39;103142.59;4981734;28;20034;-71
2021/04/13 02:01:25;;;;;;;9.85;2.50;;;;;;;1.19;90.06;103173.88;4980617;28;20038;-71
2021/04/13 02:04:04;;;;;;;7.78;2.30;;;;;;;1.10;90.45;103174.06;4981795;28;20056;-72
2021/04/13 02:06:36;;;;;;;;;;;;;;;1.04;90.53;103175.06;4985988;28;20456;-72
2021/04/13 02:09:27;;;;;;;8.60;2.38;;;;;;;0.73;90.87;103131.91;4985765;28;19921;-72
2021/04/13 02:12:03;;;;;;;8.38;1.98;;;;;;;0.95;91.10;103177.88;4985103;28;20030;-71
2021/04/13 02:14:34;;;;;;;9.30;2.38;;;;;;;0.96;91.68;103174.38;4980138;28;20109;-72
2021/04/13 02:17:14;;;;;;;10.90;2.15;;;;;;;0.79;91.75;103149.28;4990909;28;20131;-72
2021/04/13 02:19:47;;;;;;;9.65;2.38;;;;;;;0.95;91.88;103184.00;4985217;28;20061;-71
2021/04/13 02:22:16;;;;;;;10.23;2.45;;;;;;;0.98;91.11;103189.19;4985001;28;20085;-72
2021/04/13 02:24:44;;;;;;;11.02;2.50;;;;;;;0.99;91.31;103190.09;4984129;28;20053;-72
2021/04/13 02:27:14;;;;;;;6.32;2.00;;;;;;;0.73;90.91;103134.53;4975262;28;20085;-71
2021/04/13 02:29:50;;;;;;;12.30;2.20;;;;;;;0.80;90.56;103140.50;4984159;28;20075;-71
2021/04/13 02:32:28;;;;;;;10.73;2.08;;;;;;;1.07;90.74;103188.13;4975715;28;20456;-71
2021/04/13 02:35:00;;;;;;;10.68;2.13;;;;;;;1.06;90.39;103189.03;4975929;28;20058;-71
2021/04/13 02:38:03;;;;;;;9.90;2.47;;;;;;;1.06;90.36;103183.78;4985913;28;20450;-71
2021/04/13 02:41:11;;;;;;;12.60;2.60;;;;;;;1.06;90.57;103191.66;5001582;28;20057;-71
2021/04/13 02:43:43;;;;;;;10.55;2.72;;;;;;;1.05;90.19;103189.94;4978768;28;20169;-71
2021/04/13 02:46:16;;;;;;;12.48;2.22;;;;;;;0.77;90.33;103140.56;4981858;28;20049;-71
2021/04/13 02:48:49;;;;;;;12.65;3.03;;;;;;;0.76;90.39;103152.88;4979836;28;20026;-71
2021/04/13 02:51:17;;;;;;;16.58;2.88;;;;;;;0.99;90.73;103192.72;4977993;28;20526;-71
2021/04/13 02:53:49;;;;;;;8.95;2.92;;;;;;;0.94;90.12;103194.56;4977730;28;20374;-71
2021/04/13 02:56:26;;;;;;;6.45;2.13;;;;;;;0.99;90.86;103195.34;4981061;28;20029;-71
2021/04/13 02:59:11;;;;;;;10.17;2.07;;;;;;;1.03;90.38;103191.72;4978468;28;20019;-72
2021/04/13 03:01:39;;;;;;;12.98;2.40;;;;;;;1.03;90.20;103189.97;4982811;28;20061;-71
2021/04/13 03:04:08;;;;;;;10.80;2.00;;;;;;;1.04;89.90;103193.47;4982139;28;20029;-71
2021/04/13 03:06:38;;;;;;;9.52;2.45;;;;;;;1.03;90.33;103189.09;4980231;28;20030;-71
2021/04/13 03:09:05;;;;;;;12.88;2.65;;;;;;;1.06;90.13;103200.44;4985777;28;20069;-71
2021/04/13 03:11:34;;;;;;;12.18;2.17;;;;;;;1.09;89.82;103193.38;4986038;28;20040;-71
2021/04/13 03:14:00;;;;;;;5.78;2.08;;;;;;;1.07;90.21;103188.13;4978299;28;20473;-72
2021/04/13 03:16:36;;;;;;;8.00;2.15;;;;;;;1.09;89.14;103196.88;4986312;28;20109;-72
2021/04/13 03:19:07;;;;;;;9.77;2.05;;;;;;;1.04;89.68;103183.81;4984917;28;20050;-72
2021/04/13 03:21:35;;;;;;;15.75;2.13;;;;;;;0.97;89.64;103174.31;4983886;28;20185;-71
2021/04/13 03:24:06;;;;;;;9.30;2.47;;;;;;;1.08;89.67;103191.66;4981824;28;20042;-71
2021/04/13 03:26:48;;;;;;;12.15;2.42;;;;;;;1.05;89.26;103196.06;4987003;28;20038;-72
2021/04/13 03:29:25;;;;;;;12.38;2.67;;;;;;;1.04;89.36;103193.47;4979641;28;20030;-72
2021/04/13 03:31:53;;;;;;;12.68;2.60;;;;;;;0.98;89.69;103193.59;4984406;28;20541;-72
2021/04/13 03:34:20;;;;;;;14.85;2.75;;;;;;;0.93;89.85;103191.09;4974854;28;20325;-72
2021/04/13 03:36:48;;;;;;;9.40;2.22;;;;;;;0.88;89.31;103193.78;4985196;28;20061;-72
2021/04/13 03:39:19;;;;;;;21.90;2.60;;;;;;;0.83;90.00;103194.78;4990368;28;20126;-72
2021/04/13 03:41:47;;;;;;;15.52;2.65;;;;;;;0.78;90.43;103200.13;4987341;28;20031;-71
2021/04/13 03:44:17;;;;;;;13.10;2.33;;;;;;;0.73;91.04;103197.59;4982744;28;20031;-72
2021/04/13 03:46:43;;;;;;;8.32;2.83;;;;;;;0.70;90.79;103192.41;4985614;28;20109;-71
2021/04/13 03:49:16;;;;;;;12.50;2.67;;;;;;;0.68;90.14;103188.94;4983531;28;20086;-71
2021/04/13 03:51:47;;;;;;;7.70;1.90;;;;;;;0.62;90.88;103191.69;4985495;28;20121;-72
2021/04/13 03:54:29;;;;;;;11.52;2.55;;;;;;;0.58;90.58;103196.16;4976701;28;20022;-72
2021/04/13 03:56:56;;;;;;;8.93;2.67;;;;;;;0.56;90.55;103192.69;4981596;28;20030;-72
2021/04/13 03:59:26;;;;;;;12.88;3.00;;;;;;;0.23;90.95;103150.41;4979680;28;20039;-73
2021/04/13 04:01:52;;;;;;;11.68;2.60;;;;;;;0.49;90.96;103196.31;4983280;28;20412;-72
2021/04/13 04:04:36;;;;;;;8.85;2.72;;;;;;;0.36;90.91;103184.31;4976805;28;20440;-72
2021/04/13 04:07:36;;;;;;;12.65;2.70;;;;;;;0.41;91.21;103195.59;4992900;28;20073;-72
2021/04/13 04:10:21;;;;;;;12.75;3.08;;;;;;;0.36;91.86;103192.19;4981649;28;20042;-72
2021/04/13 04:12:58;;;;;;;10.77;3.25;;;;;;;0.15;91.96;103173.31;4981746;28;20039;-72
2021/04/13 04:15:48;;;;;;;13.23;3.67;;;;;;;0.34;92.42;103207.13;4979254;28;20512;-72
2021/04/13 04:18:30;;;;;;;16.67;3.75;;;;;;;0.30;92.06;103207.19;4988219;28;20440;-72
2021/04/13 04:20:58;;;;;;;16.88;3.67;;;;;;;0.05;91.93;103174.38;4984178;28;20066;-72
2021/04/13 04:23:31;;;;;;;8.82;3.22;;;;;;;0.22;91.72;103209.06;4984166;28;20026;-71
2021/04/13 04:26:01;;;;;;;15.68;4.70;;;;;;;0.23;91.76;103218.69;4986049;28;20272;-72
2021/04/13 04:28:38;;;;;;;14.50;3.47;;;;;;;0.19;91.49;103219.66;4986977;28;20026;-72
2021/04/13 04:31:36;;;;;;;6.43;2.70;;;;;;;0.17;92.46;103218.81;4983322;28;20212;-72
2021/04/13 04:34:13;;;;;;;7.72;3.20;;;;;;;0.14;92.18;103226.72;4981691;28;20026;-71
2021/04/13 04:36:49;;;;;;;10.50;3.05;;;;;;;0.15;91.98;103223.22;4981099;28;20402;-71
2021/04/13 04:39:33;;;;;;;12.70;2.92;;;;;;;0.14;92.00;103221.47;4984350;28;20034;-71
2021/04/13 04:42:10;;;;;;;11.15;3.15;;;;;;;0.16;92.16;103230.19;4973173;28;20620;-72
2021/04/13 04:44:35;;;;;;;11.88;2.85;;;;;;;-0.21;92.59;103173.09;4981880;28;20018;-72
2021/04/13 04:47:32;;;;;;;18.95;3.25;;;;;;;0.15;92.25;103231.09;4974919;28;20433;-72
2021/04/13 04:49:57;;;;;;;12.07;3.17;;;;;;;0.15;92.58;103239.81;4969057;28;20045;-72
2021/04/13 04:52:22;;;;;;;11.02;2.92;;;;;;;0.16;92.27;103238.09;4982162;28;20026;-72
2021/04/13 04:54:48;;;;;;;13.57;3.42;;;;;;;0.16;92.25;103240.72;4981514;28;20157;-72
2021/04/13 04:57:15;;;;;;;11.43;3.28;;;;;;;0.17;92.42;103237.19;4983244;28;20038;-72
2021/04/13 04:59:40;;;;;;;15.70;3.30;;;;;;;0.15;92.11;103236.34;4976047;28;20080;-71
2021/04/13 05:02:05;;;;;;;15.00;3.55;;;;;;;0.02;91.82;103198.06;4979654;28;20037;-71
2021/04/13 05:04:31;;;;;;;12.70;3.60;;;;;;;0.20;91.99;103234.53;4978934;28;20038;-71
2021/04/13 05:06:56;;;;;;;23.45;4.20;;;;;;;0.25;91.82;103231.81;4983615;28;20030;-71
2021/04/13 05:09:22;;;;;;;12.57;3.33;;;;;;;0.24;91.43;103238.81;4978161;28;20490;-71
2021/04/13 05:11:47;;;;;;;11.85;3.35;;;;;;;0.28;91.34;103239.59;4977544;28;20034;-71
2021/04/13 05:14:12;;;;;;;12.85;3.47;;;;;;;0.29;91.35;103236.09;4974519;28;20068;-71
2021/04/13 05:16:38;;;;;;;17.48;4.00;;;;;;;0.34;91.66;103236.03;4974210;28;20030;-72
2021/04/13 05:19:04;;;;;;;12.38;3.35;;;;;;;0.38;91.65;103250.81;4973219;28;20149;-71
2021/04/13 05:21:29;;;;;;;11.95;3.70;;;;;;;0.42;91.88;103244.63;4978149;28;20129;-71
2021/04/13 05:23:55;;;;;;;12.95;3.90;;;;;;;0.48;91.37;103248.91;4975456;28;20118;-72
2021/04/13 05:26:20;;;;;;;11.57;3.38;;;;;;;0.47;90.94;103249.78;4982174;28;20125;-71
2021/04/13 05:28:46;;;;;;;14.48;3.83;;;;;;;0.56;90.71;103257.50;4978937;28;20077;-72
2021/04/13 05:31:11;;;;;;;12.52;3.33;;;;;;;0.62;90.64;103260.03;4982356;28;20156;-72
2021/04/13 05:33:37;;;;;;;12.63;3.95;;;;;;;0.72;90.58;103268.63;4979708;28;20034;-71
2021/04/13 05:36:04;;;;;;;9.05;3.25;;;;;;;0.83;90.45;103261.38;4978930;28;20064;-72
2021/04/13 05:38:37;;;;;;;15.70;3.78;;;;;;;0.97;89.98;103276.00;4981067;28;20135;-71
2021/04/13 05:41:07;;;;;;;10.90;3.65;;;;;;;0.84;90.05;103249.97;4982772;28;20030;-72
2021/04/13 05:43:36;;;;;;;14.07;4.03;;;;;;;1.08;89.55;103274.03;4970218;28;20108;-72
2021/04/13 05:46:05;;;;;;;14.98;4.30;;;;;;;1.21;89.09;103285.19;4979849;28;20116;-72
2021/04/13 05:48:30;;;;;;;14.35;4.13;;;;;;;1.15;89.50;103261.63;4987309;28;20046;-72
2021/04/13 05:50:57;;;;;;;19.38;4.10;;;;;;;1.37;88.95;103297.09;4977506;28;20026;-73
2021/04/13 05:53:23;;;;;;;15.23;3.80;;;;;;;1.11;88.89;103244.16;4979699;28;20035;-72
2021/04/13 05:55:50;;;;;;;16.88;3.72;;;;;;;1.48;89.00;103261.81;4979165;28;20496;-73
2021/04/13 05:58:20;;;;;;;16.77;3.72;;;;;;;1.88;88.29;103291.59;4982970;28;20031;-72
2021/04/13 06:00:50;;;;;;;11.77;3.10;;;;;;;2.18;87.19;103294.41;4982511;28;20403;-71
2021/04/13 06:03:19;;;;;;;12.90;3.63;;;;;;;2.09;85.14;103238.41;4972099;28;20031;-72
2021/04/13 06:05:45;;;;;;;25.73;3.30;;;;;;;2.69;84.53;103303.66;4982946;28;20076;-72
2021/04/13 06:08:12;;;;;;;14.07;3.10;;;;;;;2.90;83.78;103300.41;4983403;28;20381;-73
2021/04/13 06:10:37;;;;;;;12.70;3.30;;;;;;;2.87;82.77;103263.56;4973715;28;20117;-72
2021/04/13 06:13:24;;;;;;;17.08;3.05;;;;;;;3.26;80.71;103309.97;4967831;28;20034;-73
2021/04/13 06:15:52;;;;;;;11.93;2.60;;;;;;;3.37;80.65;103317.59;4980390;28;20038;-72
2021/04/13 06:18:18;;;;;;;11.50;2.70;;;;;;;3.48;80.71;103317.25;4980312;28;20050;-72
2021/04/13 06:20:44;;;;;;;13.20;2.65;;;;;;;3.98;78.98;103313.94;4977613;28;20042;-73
2021/04/13 06:23:10;;;;;;;19.92;3.20;;;;;;;5.00;74.87;103293.75;4973646;28;20473;-72
2021/04/13 06:25:37;;;;;;;10.30;2.30;;;;;;;6.16;70.88;103329.03;4985781;28;20038;-72
2021/04/13 06:28:03;;;;;;;11.70;2.58;;;;;;;7.38;67.40;103332.66;4977669;28;20118;-71
2021/04/13 06:30:29;;;;;;;11.77;3.28;;;;;;;8.47;62.89;103331.81;4980572;28;20051;-72
2021/04/13 06:32:57;;;;;;;17.70;3.47;;;;;;;9.22;58.98;103310.19;4982746;28;20034;-72
2021/04/13 06:35:25;;;;;;;17.05;4.25;;;;;;;9.35;59.04;103337.00;4983161;28;20026;-71
2021/04/13 06:37:54;;;;;;;12.63;3.00;;;;;;;9.45;57.16;103340.03;4989819;28;20037;-72
2021/04/13 06:40:38;;;;;;;11.88;3.13;;;;;;;9.60;57.95;103341.88;4987607;28;20585;-73
2021/04/13 06:43:32;;;;;;;14.00;2.80;;;;;;;10.47;54.36;103342.28;4980762;28;20505;-73
2021/04/13 06:46:05;;;;;;;13.68;2.65;;;;;;;10.75;52.69;103337.94;4981710;28;20065;-72
2021/04/13 06:48:34;;;;;;;11.52;2.50;;;;;;;10.01;54.90;103344.94;4983556;28;20030;-71
2021/04/13 06:51:08;;;;;;;;;;;;;;;9.32;56.63;103347.84;4983462;28;20560;-74
2021/04/13 06:54:04;;;;;;;13.50;2.08;;;;;;;9.82;56.00;103353.97;4980503;28;19913;-72
2021/04/13 06:56:50;;;;;;;9.52;2.45;;;;;;;10.50;53.78;103355.44;4973174;28;20062;-72
2021/04/13 06:59:37;;;;;;;9.32;2.17;;;;;;;10.01;54.35;103358.28;4993737;28;20113;-73
2021/04/13 07:02:12;;;;;;;10.43;1.98;;;;;;;9.86;55.12;103360.00;4973145;28;20030;-72
2021/04/13 07:04:48;;;;;;;10.80;1.88;;;;;;;10.54;53.28;103359.66;4978717;28;20030;-73
2021/04/13 07:07:22;;;;;;;8.52;1.90;;;;;;;11.22;52.28;103361.84;4979634;28;20108;-73
2021/04/13 07:10:06;;;;;;;8.65;1.90;;;;;;;11.89;50.02;103358.50;4968377;28;20815;-73
2021/04/13 07:12:51;;;;;;;7.55;1.70;;;;;;;12.34;49.43;103364.47;4972390;28;20328;-73
2021/04/13 07:15:30;;;;;;;11.90;2.10;;;;;;;13.15;46.40;103362.50;4974845;28;20272;-73
2021/04/13 07:18:31;;;;;;;8.02;2.13;;;;;;;13.28;45.51;103369.66;4978565;28;20056;-73
2021/04/13 07:21:04;;;;;;;9.60;1.90;;;;;;;13.09;45.77;103359.41;4990961;28;20429;-74
2021/04/13 07:23:42;;;;;;;7.53;1.80;;;;;;;13.28;45.21;103369.66;4977504;28;20034;-74
2021/04/13 07:26:16;;;;;;;5.50;1.30;;;;;;;13.32;45.16;103366.66;4979712;28;20485;-74
2021/04/13 07:28:54;;;;;;;7.50;1.65;;;;;;;13.54;44.44;103329.41;4973298;28;20392;-74
2021/04/13 07:31:34;;;;;;;9.35;1.83;;;;;;;14.16;43.14;103323.03;4986819;28;20559;-74
2021/04/13 07:33:59;;;;;;;6.22;1.77;;;;;;;14.28;43.22;103366.03;4958361;28;20045;-75
2021/04/13 07:36:33;;;;;;;6.57;1.67;;;;;;;14.71;41.98;103364.63;4986968;28;20514;-72
2021/04/13 07:38:59;;;;;;;9.90;2.00;;;;;;;14.58;42.26;103367.34;4969261;28;20062;-72
2021/04/13 07:41:31;;;;;;;8.55;2.10;;;;;;;14.67;42.73;103375.59;4965126;28;20118;-73
2021/04/13 07:44:04;;;;;;;7.85;1.95;;;;;;;15.08;41.72;103365.25;4968076;28;20037;-73
2021/04/13 07:46:45;;;;;;;5.05;1.65;;;;;;;14.81;42.76;103368.31;4966624;28;20031;-74
2021/04/13 07:49:30;;;;;;;3.90;1.55;;;;;;;15.41;40.75;103376.13;4975854;28;20054;-73
2021/04/13 07:52:02;;;;;;;7.03;1.73;;;;;;;15.34;41.85;103378.47;4979270;28;20026;-74
2021/04/13 07:54:55;;;;;;;5.97;1.55;;;;;;;15.38;42.33;103379.09;4963248;28;20052;-74
2021/04/13 07:57:32;;;;;;;6.85;1.77;;;;;;;15.95;39.38;103370.97;4972405;28;20039;-74
2021/04/13 08:00:10;;;;;;;6.63;1.38;;;;;;;15.90;40.18;103374.88;4968827;28;20037;-73
2021/04/13 08:02:36;;;;;;;5.05;1.58;;;;;;;15.96;40.22;103383.41;4965418;28;20069;-73
2021/04/13 08:05:04;;;;;;;5.75;1.45;;;;;;;16.83;37.23;103379.69;4966447;28;20065;-73
2021/04/13 08:07:36;;;;;;;5.07;1.33;;;;;;;16.71;36.92;103383.44;4974687;28;20081;-72
2021/04/13 08:10:08;;;;;;;3.92;1.17;;;;;;;16.39;37.38;103385.22;4972663;28;20569;-72
2021/04/13 08:12:48;;;;;;;7.15;1.63;;;;;;;15.97;38.73;103387.81;4976988;28;20015;-73
2021/04/13 08:15:18;;;;;;;4.53;1.25;;;;;;;16.30;38.04;103368.00;4967336;28;20797;-74
2021/04/13 08:18:09;;;;;;;6.93;1.52;;;;;;;16.58;37.26;103383.66;4975652;28;20030;-73
2021/04/13 08:20:38;;;;;;;6.50;1.13;;;;;;;16.93;37.10;103387.84;4976779;28;20186;-73
2021/04/13 08:23:10;;;;;;;8.73;1.70;;;;;;;17.23;35.32;103360.06;4974934;28;20077;-74
2021/04/13 08:25:50;;;;;;;6.55;1.30;;;;;;;16.86;35.26;103384.81;4989194;28;20037;-73
2021/04/13 08:28:21;;;;;;;6.93;1.33;;;;;;;16.43;34.80;103386.69;4979817;28;20476;-72
2021/04/13 08:32:50;;;;;;;6.95;1.00;;;;;;;15.22;36.33;103383.00;4981899;28;20022;-72
2021/04/13 08:34:24;;;;;;;5.38;0.98;;;;;;;14.51;38.26;103388.47;4972710;28;20041;-73
2021/04/13 08:37:07;;;;;;;4.13;1.30;;;;;;;14.75;38.48;103379.53;4975350;28;20045;-72
2021/04/13 08:40:00;;;;;;;5.55;1.10;;;;;;;15.16;37.74;103380.78;4981528;28;20038;-71
2021/04/13 08:42:37;;;;;;;4.57;1.15;;;;;;;16.63;35.37;103386.81;4985433;28;22187;-71
2021/04/13 08:45:33;;;;;;;7.13;1.30;;;;;;;17.27;33.76;103387.63;4979708;28;20034;-72
2021/04/13 08:48:12;;;;;;;10.57;1.50;;;;;;;17.69;33.72;103403.69;4991044;28;20035;-72
2021/04/13 08:50:41;;;;;;;6.03;1.42;;;;;;;18.04;31.88;103399.66;4974967;28;20034;-72
2021/04/13 08:53:09;;;;;;;3.05;1.10;;;;;;;18.41;30.99;103400.81;4975216;28;20033;-72
2021/04/13 08:55:35;;;;;;;6.63;1.40;;;;;;;18.08;31.24;103396.69;4978678;28;20034;-73
2021/04/13 08:58:06;;;;;;;8.13;1.40;;;;;;;18.09;33.04;103401.09;4981995;28;20038;-72
2021/04/13 09:00:47;;;;;;;3.97;1.02;;;;;;;18.57;29.41;103383.16;4979990;28;20048;-72
2021/04/13 09:03:17;;;;;;;8.48;1.48;;;;;;;18.19;30.33;103391.13;4978466;28;20068;-73
2021/04/13 09:05:45;;;;;;;7.82;1.27;;;;;;;18.29;30.68;103343.31;4980712;28;20030;-72
2021/04/13 09:08:34;;;;;;;5.30;1.00;;;;;;;19.33;28.66;103379.50;4975698;28;20116;-72
2021/04/13 09:11:24;;;;;;;4.10;1.30;;;;;;;19.49;28.00;103386.13;4983291;28;20121;-72
2021/04/13 09:14:04;;;;;;;3.22;1.20;;;;;;;18.77;28.91;103378.56;4980139;28;20042;-73
2021/04/13 09:16:35;;;;;;;3.97;1.15;;;;;;;19.24;27.06;103375.00;4986044;28;20034;-74
2021/04/13 09:19:06;;;;;;;3.50;1.10;;;;;;;18.78;27.86;103355.91;4964648;28;20042;-73
2021/04/13 09:21:52;;;;;;;4.35;1.25;;;;;;;18.13;31.39;103386.28;4980883;28;20121;-73
2021/04/13 09:24:41;;;;;;;4.03;1.10;;;;;;;17.71;32.16;103388.19;4972573;28;20839;-72
2021/04/13 09:27:30;;;;;;;6.15;1.30;;;;;;;18.48;29.13;103387.56;4981335;28;20050;-74
2021/04/13 09:29:59;;;;;;;6.85;1.30;;;;;;;19.53;26.68;103385.69;4974619;28;20030;-72
2021/04/13 09:32:25;;;;;;;8.00;1.63;;;;;;;19.00;29.22;103384.47;4977912;28;21675;-72
2021/04/13 09:35:00;;;;;;;3.63;1.20;;;;;;;18.99;30.30;103368.41;4986116;28;20112;-73
2021/04/13 09:37:45;;;;;;;6.05;1.75;;;;;;;19.09;29.88;103380.91;4983741;28;20108;-71
2021/04/13 09:40:13;;;;;;;4.10;1.60;;;;;;;18.22;31.02;103390.84;4984455;28;20038;-72
2021/04/13 09:42:39;;;;;;;;;;;;;;;17.53;32.41;103384.47;4964785;28;20329;-72
2021/04/13 09:45:21;;;;;;;6.70;1.50;;;;;;;17.52;31.47;103385.44;4980010;28;19917;-72
2021/04/13 09:48:03;;;;;;;5.78;1.25;;;;;;;17.13;31.88;103384.31;4982415;28;20356;-72
2021/04/13 09:50:34;;;;;;;8.30;1.25;;;;;;;17.32;30.65;103390.75;4982178;28;20037;-72
2021/04/13 09:53:22;;;;;;;7.60;1.45;;;;;;;17.35;31.78;103386.97;4981415;28;20489;-73
2021/04/13 09:56:15;;;;;;;3.17;1.30;;;;;;;16.73;33.83;103346.44;4986455;28;20034;-73
2021/04/13 09:58:46;;;;;;;5.05;1.20;;;;;;;17.25;33.29;103382.34;4980644;28;20485;-72
2021/04/13 10:01:39;;;;;;;7.07;1.40;;;;;;;18.13;30.66;103383.56;4978653;28;20496;-72
2021/04/13 10:04:29;;;;;;;3.95;1.27;;;;;;;17.18;31.60;103383.03;4982731;28;20042;-72
2021/04/13 10:07:23;;;;;;;8.52;5.07;;;;;;;16.98;30.92;103308.28;4979636;28;20034;-72
2021/04/13 10:09:49;;;;;;;7.72;3.20;;;;;;;17.75;30.87;103384.22;4961493;28;20034;-70
2021/04/13 10:12:39;;;;;;;5.72;1.50;;;;;;;17.03;33.50;103372.63;4982910;28;20100;-70
2021/04/13 10:15:17;;;;;;;4.90;1.25;;;;;;;16.94;32.82;103376.06;4988132;28;20121;-70
2021/04/13 10:18:02;;;;;;;4.03;1.02;;;;;;;16.05;32.38;103372.75;4985100;28;20026;-74
2021/04/13 10:20:45;;;;;;;3.97;1.05;;;;;;;15.36;33.86;103373.81;4984362;28;20054;-73
2021/04/13 10:23:32;;;;;;;7.05;1.20;;;;;;;15.38;33.60;103369.19;4983694;28;20042;-76
2021/04/13 10:26:34;;;;;;;4.07;1.30;;;;;;;15.58;34.07;103369.41;4984912;28;20030;-74
2021/04/13 10:29:31;;;;;;;3.92;1.15;;;;;;;15.90;34.47;103369.50;4985093;28;20532;-77
2021/04/13 10:32:33;;;;;;;6.70;1.73;;;;;;;15.79;34.20;103368.63;5008817;28;20031;-73
2021/04/13 10:35:01;;;;;;;5.05;1.48;;;;;;;14.38;37.87;103367.06;4988063;28;20030;-74
2021/04/13 10:38:00;;;;;;;3.20;1.25;;;;;;;14.34;36.48;103370.94;4983608;28;20251;-73
2021/04/13 10:40:47;;;;;;;4.40;1.40;;;;;;;14.42;36.96;103368.53;4986864;28;20054;-75
2021/04/13 10:43:50;;;;;;;4.00;1.33;;;;;;;14.72;36.40;103358.28;4999401;28;20022;-74
2021/04/13 10:46:29;;;;;;;6.00;1.30;;;;;;;14.94;33.58;103366.38;4982423;28;20096;-67
2021/04/13 10:49:52;;;;;;;4.75;1.40;;;;;;;14.12;35.70;103364.50;4986591;28;20032;-69
2021/04/13 10:52:39;;;;;;;5.28;1.75;;;;;;;13.54;36.58;103358.91;4985511;28;20188;-69
2021/04/13 10:55:42;;;;;;;9.65;1.83;;;;;;;13.53;39.10;103362.56;4977676;28;20567;-72
2021/04/13 10:59:01;;;;;;;7.82;1.60;;;;;;;13.93;35.55;103365.00;4976586;28;20034;-72
2021/04/13 11:01:59;;;;;;;4.72;1.48;;;;;;;13.32;36.97;103371.19;4978823;28;20046;-70
2021/04/13 11:04:25;;;;;;;4.72;1.45;;;;;;;13.31;37.62;103364.94;4973714;28;20053;-72
2021/04/13 11:07:09;;;;;;;4.70;1.48;;;;;;;13.13;38.49;103367.09;4979778;28;20420;-70
2021/04/13 11:09:41;;;;;;;4.30;1.38;;;;;;;13.02;38.40;103359.84;4978250;28;20066;-71
2021/04/13 11:12:28;;;;;;;4.50;1.17;;;;;;;12.76;40.02;103367.00;4974807;28;20044;-71
2021/04/13 11:15:13;;;;;;;7.25;1.67;;;;;;;12.54;40.36;103362.25;4976067;28;20041;-70
2021/04/13 11:17:57;;;;;;;4.20;1.13;;;;;;;12.52;40.34;103357.00;4981752;28;20022;-69
2021/04/13 11:20:34;;;;;;;6.15;1.65;;;;;;;12.60;40.55;103331.50;4981104;28;20030;-70
2021/04/13 11:23:22;;;;;;;5.78;1.80;;;;;;;12.86;38.74;103362.72;4977173;28;20461;-70
2021/04/13 11:26:12;;;;;;;7.25;1.33;;;;;;;12.92;39.75;103357.91;4977942;28;20537;-70
2021/04/13 11:29:13;;;;;;;8.82;1.75;;;;;;;12.64;39.57;103330.34;4974897;28;20086;-70
2021/04/13 11:31:59;;;;;;;6.40;1.42;;;;;;;12.58;39.95;103347.69;4981181;28;20026;-70
2021/04/13 11:34:43;;;;;;;5.05;2.00;;;;;;;12.58;39.38;103349.50;4980834;28;20027;-70
2021/04/13 11:37:42;;;;;;;6.70;1.67;;;;;;;12.25;39.81;103340.97;5002474;28;20031;-70
2021/04/13 11:40:26;;;;;;;4.90;1.30;;;;;;;12.00;40.04;103296.28;4980743;28;20129;-71
2021/04/13 11:42:55;;;;;;;4.72;1.50;;;;;;;12.22;36.92;103339.38;4974712;28;20572;-71
2021/04/13 11:45:33;;;;;;;7.10;1.60;;;;;;;11.75;40.36;103344.19;4986998;28;20489;-70
2021/04/13 11:48:13;;;;;;;6.70;1.73;;;;;;;11.71;43.34;103341.84;4979641;28;20034;-70
2021/04/13 11:51:00;;;;;;;2.60;1.73;;;;;;;11.91;41.94;103332.50;4986440;28;20497;-69
2021/04/13 11:53:30;;;;;;;3.75;1.50;;;;;;;11.98;40.07;103320.44;4985780;28;20022;-69
2021/04/13 11:55:56;;;;;;;6.13;1.52;;;;;;;12.16;40.22;103329.06;4985323;28;20034;-69
2021/04/13 11:58:33;;;;;;;6.47;1.58;;;;;;;12.39;38.66;103332.03;4980840;28;20042;-69
2021/04/13 12:01:17;;;;;;;4.28;1.55;;;;;;;12.27;37.94;103325.69;4983680;28;20030;-69
2021/04/13 12:04:09;;;;;;;4.00;1.40;;;;;;;12.14;37.54;103335.50;4978119;28;20560;-69
2021/04/13 12:07:03;;;;;;;4.03;1.25;;;;;;;11.84;36.21;103339.19;4975327;28;20026;-69
2021/04/13 12:09:47;;;;;;;4.82;1.33;;;;;;;11.76;35.96;103335.22;4980925;28;20035;-68
2021/04/13 12:12:46;;;;;;;3.13;1.20;;;;;;;11.77;36.54;103330.72;4988238;28;20041;-69
2021/04/13 12:15:11;;;;;;;1.75;1.23;;;;;;;11.66;36.31;103333.22;4972061;28;20038;-72